Kezdőlap
METAR-TAF:

METAR-TAF

Repülőterek :

Weno, Mikronézia

földrajzi szélesség: 07-28N, földrajzi hosszúság: 151-51E, magasság: 3 m

Jelenlegi meteorológiai megfigyelések

A jelentés 16 perccel ezelõtt készült, 07:51 UTC
Észak-északkeleti szél 10 kt
Hőmérséklet 29°C
Páratartalom 79%
Légköri nyomás 1006 hPa
Látótávolság: 24.1 km
Kevés felhő 1400 lábon
Szakadozott felhőzet 12000 lábon
Borult 28000 lábon

METAR: PTKK 230751Z 02010KT 15SM FEW014 BKN120 OVC280 29/25 A2970 RMK SLP057 T02860248

Idő: 18:07 (08:07 UTC)

Előrejelzés

A jelentés 2 órával és 43 perccel ezelõtt készült, 05:24 UTC
Az előrejelzés 23-én 06 óra UTC és 24-én 06 óra UTC között érvényes
Északkeleti szél 12 kt
Látótávolság: 10 km
Kevés felhő 1800 lábon
Szórványos felhőzet 5000 lábon
Szórványos felhőzet 14000 lábon

TAF: PTKK 230524Z 2306/2406 05012KT P6SM FEW018 SCT050 SCT140

Meteorológiai megfigyelések és előrejelzések több, mint 4000 repülőtéren (METAR és TAF jelentéseket).

A térképen piros és sárga pontok jelzik az elérhető meteorológiai állomásokat.

Mozgassa az egeret a pont fölött, hogy megjelenjen az állomás neve.

Azután kattintson az időjárási megfigyelések és előrejelzések megtekintéséhez.

A térkép megváltoztatása: kattintson a fekete keresztel jelölt zöld gombra ráközelítéshez, a vonallal jelölt zöld gombra távolításhoz, vagy a zöld nyilakra a szomszédos térképek eléréséhez.


METAR-TAF: